Terminal Aerodrome Forecast
Issued by NWS Pueblo, CO

Home | Current Version | Previous Version | Text Only | Print | Product List | Glossary On
Versions: 1 2 3 4 5 6 7 8 9 10 11 12 13 14 15 16 17 18 19 20 21 22 23 24 25 26 27 28 29 30 31 32 33 34 35 36 37 38 39 40 41 42 43 44 45 46 47
713
FTUS45 KPUB 261147
TAFPUB
TAF
KPUB 261147Z 2612/2712 36008KT P6SM SCT140
     FM261300 03012KT P6SM BKN030 OVC130
     FM261700 10014KT P6SM VCSH SCT050 BKN100
     FM262100 12014KT 5SM -TSRA BKN050CB
     FM270000 02015G27KT P6SM VCSH BKN040
     FM270300 30015G27KT P6SM VCSH OVC030
     FM270500 30015G25KT 5SM -SHRA BR BKN020=

USA.gov is the U.S. government's official web portal to all federal, state and local government web resources and services.